Time;durP1;ratioP1;P1;durP2;ratioP2;P2;SDS_P1;SDS_P2;PMS_P1;PMS_P2;Temp;Humidity;BMP_temperature;BMP_pressure;BME280_temperature;BME280_humidity;BME280_pressure;Samples;Min_cycle;Max_cycle;Signal;HPM_P1;HPM_P2
2022/05/14 00:01:15;;;;;;;106.93;22.27;;;12.80;1.00;;;;;;4975538;28;20213;-47
2022/05/14 00:03:41;;;;;;;67.43;17.13;;;12.90;1.00;;;;;;4973928;28;20230;-47
2022/05/14 00:06:10;;;;;;;65.63;16.77;;;12.80;1.00;;;;;;4977544;28;20717;-47
2022/05/14 00:08:36;;;;;;;101.30;21.83;;;12.80;99.90;;;;;;4974288;28;20213;-47
2022/05/14 00:13:49;;;;;;;63.70;14.70;;;13.20;1.00;;;;;;4970552;28;20284;-47
2022/05/14 00:16:16;;;;;;;72.57;16.92;;;13.00;1.00;;;;;;4980609;28;20260;-47
2022/05/14 00:18:43;;;;;;;87.07;20.40;;;13.00;1.00;;;;;;4974820;28;20910;-47
2022/05/14 00:21:10;;;;;;;65.38;16.40;;;12.90;1.00;;;;;;4977465;28;20316;-46
2022/05/14 00:23:35;;;;;;;87.30;19.52;;;12.90;1.00;;;;;;4970625;28;20228;-47
2022/05/14 00:26:01;;;;;;;109.77;23.00;;;12.90;1.00;;;;;;4970401;28;20201;-48
2022/05/14 00:28:27;;;;;;;89.13;20.85;;;12.90;1.00;;;;;;4966670;28;20601;-47
2022/05/14 00:30:52;;;;;;;73.10;17.53;;;12.80;1.00;;;;;;4973631;28;20213;-47
2022/05/14 00:33:18;;;;;;;72.20;17.48;;;13.00;1.00;;;;;;4975654;28;20214;-47
2022/05/14 00:35:44;;;;;;;60.85;16.33;;;12.70;1.00;;;;;;4977711;28;20194;-46
2022/05/14 00:38:10;;;;;;;58.25;14.48;;;12.90;1.00;;;;;;4979018;28;20221;-47
2022/05/14 00:40:39;;;;;;;106.50;23.10;;;12.90;1.00;;;;;;4976973;28;20336;-47
2022/05/14 00:43:06;;;;;;;70.77;17.20;;;12.90;1.00;;;;;;4967497;28;21006;-47
2022/05/14 00:45:35;;;;;;;93.18;20.83;;;13.00;1.00;;;;;;4970367;28;20307;-47
2022/05/14 00:48:01;;;;;;;61.88;15.27;;;13.00;1.00;;;;;;4972992;28;20218;-47
2022/05/14 00:50:47;;;;;;;86.60;18.88;;;12.80;1.00;;;;;;4976440;28;20618;-47
2022/05/14 00:53:17;;;;;;;105.27;22.00;;;13.00;1.00;;;;;;4975599;28;20231;-47
2022/05/14 00:55:46;;;;;;;66.57;16.30;;;12.90;1.00;;;;;;4967686;28;20225;-47
2022/05/14 00:58:19;;;;;;;110.10;24.10;;;12.80;1.00;;;;;;4970538;28;20224;-47
2022/05/14 01:00:44;;;;;;;41.93;11.53;;;12.50;1.00;;;;;;4977336;28;20359;-47
2022/05/14 01:03:10;;;;;;;112.97;23.53;;;12.80;1.00;;;;;;4970905;28;20221;-47
2022/05/14 01:05:36;;;;;;;96.67;21.40;;;12.70;1.00;;;;;;4972209;28;20206;-47
2022/05/14 01:08:03;;;;;;;57.80;15.52;;;12.70;1.00;;;;;;4977617;28;20325;-47
2022/05/14 01:10:40;;;;;;;106.78;22.65;;;12.70;1.00;;;;;;4971287;28;20236;-46
2022/05/14 01:13:06;;;;;;;87.37;20.13;;;12.60;1.00;;;;;;4970271;28;23027;-47
2022/05/14 01:15:48;;;;;;;73.97;17.97;;;12.60;1.00;;;;;;4973568;28;20361;-47
2022/05/14 01:18:14;;;;;;;105.17;22.23;;;12.80;1.00;;;;;;4967847;28;20332;-47
2022/05/14 01:20:40;;;;;;;121.53;24.67;;;12.60;1.00;;;;;;4967694;28;20202;-47
2022/05/14 01:23:21;;;;;;;66.53;16.57;;;12.60;1.00;;;;;;4973710;28;20183;-47
2022/05/14 01:26:29;;;;;;;83.07;18.55;;;12.50;1.00;;;;;;4966866;28;20271;-47
2022/05/14 01:29:03;;;;;;;45.73;12.43;;;13.60;1.00;;;;;;4972319;28;20277;-47
2022/05/14 01:31:29;;;;;;;74.63;17.27;;;12.40;1.00;;;;;;4976812;28;20784;-47
2022/05/14 01:33:59;;;;;;;71.95;17.27;;;12.40;1.00;;;;;;4971279;28;20646;-47
2022/05/14 01:36:25;;;;;;;92.40;20.90;;;12.20;1.00;;;;;;4975291;28;20228;-47
2022/05/14 01:38:51;;;;;;;54.13;14.80;;;12.20;1.00;;;;;;4971736;28;20221;-46
2022/05/14 01:41:17;;;;;;;66.20;16.80;;;12.20;1.00;;;;;;4974031;28;20181;-47
2022/05/14 01:43:42;;;;;;;74.33;17.40;;;12.20;1.00;;;;;;4973498;28;20749;-47
2022/05/14 01:46:09;;;;;;;69.50;16.23;;;12.10;1.00;;;;;;4972533;28;20836;-46
2022/05/14 01:48:35;;;;;;;127.63;25.10;;;11.70;1.00;;;;;;4971374;28;20221;-47
2022/05/14 01:51:00;;;;;;;62.97;15.45;;;12.00;1.00;;;;;;4973480;28;20217;-47
2022/05/14 01:53:26;;;;;;;110.13;23.53;;;12.20;1.00;;;;;;4976949;28;20547;-47
2022/05/14 01:55:51;;;;;;;98.30;21.60;;;12.00;1.00;;;;;;4969014;28;20229;-46
2022/05/14 02:01:01;;;;;;;86.13;19.20;;;12.00;1.00;;;;;;4972561;28;20224;-47
2022/05/14 02:03:27;;;;;;;111.17;23.03;;;12.00;1.00;;;;;;4970100;28;20296;-47
2022/05/14 02:05:52;;;;;;;67.40;15.20;;;12.10;1.00;;;;;;4973845;28;20221;-47
2022/05/14 02:08:18;;;;;;;123.03;25.50;;;11.90;1.00;;;;;;4972676;28;20205;-46
2022/05/14 02:10:44;;;;;;;54.45;14.70;;;12.20;1.00;;;;;;4973989;28;20311;-47
2022/05/14 02:13:10;;;;;;;98.47;21.33;;;12.30;1.00;;;;;;4971803;28;20209;-47
2022/05/14 02:15:36;;;;;;;61.03;14.50;;;12.10;1.00;;;;;;4969380;28;20222;-47
2022/05/14 02:18:02;;;;;;;95.10;20.13;;;12.10;1.00;;;;;;4972530;28;20630;-47
2022/05/14 02:20:28;;;;;;;78.30;17.23;;;12.20;1.00;;;;;;4972712;28;20190;-47
2022/05/14 02:22:53;;;;;;;109.67;22.07;;;12.00;1.00;;;;;;4977367;28;20241;-47
2022/05/14 02:25:20;;;;;;;57.60;14.07;;;12.00;1.00;;;;;;4976123;28;20229;-47
2022/05/14 02:27:46;;;;;;;73.70;16.87;;;12.00;1.00;;;;;;4980779;28;20224;-46
2022/05/14 02:30:13;;;;;;;113.33;22.90;;;12.20;1.00;;;;;;4970610;28;20217;-46
2022/05/14 02:32:38;;;;;;;81.90;18.00;;;12.30;1.00;;;;;;4978397;28;20189;-47
2022/05/14 02:35:06;;;;;;;65.07;14.77;;;12.10;1.00;;;;;;4979783;28;20236;-47
2022/05/14 02:37:32;;;;;;;40.50;10.60;;;12.20;1.00;;;;;;4981405;28;20300;-47
2022/05/14 02:39:57;;;;;;;73.13;17.00;;;12.20;1.00;;;;;;4975435;28;22074;-47
2022/05/14 02:42:24;;;;;;;123.83;25.10;;;12.40;1.00;;;;;;4973269;28;20209;-47
2022/05/14 02:44:49;;;;;;;74.95;16.88;;;;;;;;;;4974012;28;20332;-46
2022/05/14 02:47:16;;;;;;;68.80;16.50;;;12.30;1.00;;;;;;4982658;28;20308;-47
2022/05/14 02:49:42;;;;;;;72.07;16.07;;;12.10;1.00;;;;;;4981444;28;20217;-47
2022/05/14 02:52:08;;;;;;;155.40;29.87;;;12.40;1.00;;;;;;4968832;28;20254;-46
2022/05/14 02:54:34;;;;;;;70.80;15.43;;;12.20;1.00;;;;;;4978680;28;20532;-47
2022/05/14 02:57:00;;;;;;;49.80;12.70;;;12.30;1.00;;;;;;4978556;28;20575;-47
2022/05/14 02:59:26;;;;;;;76.80;16.87;;;;;;;;;;4977776;28;20188;-47
2022/05/14 03:01:52;;;;;;;102.90;21.05;;;12.10;1.00;;;;;;4974987;28;20216;-47
2022/05/14 03:04:27;;;;;;;73.13;16.15;;;12.50;1.00;;;;;;4976164;28;20578;-46
2022/05/14 03:06:54;;;;;;;64.97;14.73;;;12.40;1.00;;;;;;4971992;28;20688;-47
2022/05/14 03:09:20;;;;;;;78.72;17.40;;;13.10;1.00;;;;;;4977666;28;20750;-46
2022/05/14 03:11:46;;;;;;;65.83;14.83;;;12.40;1.00;;;;;;4972626;28;20216;-47
2022/05/14 03:14:12;;;;;;;77.20;16.52;;;;;;;;;;4979497;28;20225;-47
2022/05/14 03:16:39;;;;;;;73.60;17.23;;;12.30;1.00;;;;;;4973945;28;20229;-47
2022/05/14 03:19:05;;;;;;;57.33;14.00;;;12.40;1.00;;;;;;4980201;28;20301;-46
2022/05/14 03:21:30;;;;;;;125.53;24.87;;;12.40;1.00;;;;;;4973167;28;20304;-47
2022/05/14 03:23:56;;;;;;;76.13;16.70;;;12.60;1.00;;;;;;4973983;28;20371;-47
2022/05/14 03:26:22;;;;;;;117.43;23.42;;;12.20;1.00;;;;;;4973781;28;20232;-47
2022/05/14 03:28:48;;;;;;;86.60;19.27;;;12.20;1.00;;;;;;4969784;28;22060;-46
2022/05/14 03:31:14;;;;;;;82.80;18.20;;;12.30;1.00;;;;;;4972605;28;20205;-47
2022/05/14 03:33:40;;;;;;;109.15;22.38;;;13.10;1.00;;;;;;4972330;28;20229;-47
2022/05/14 03:36:06;;;;;;;58.90;15.35;;;12.60;1.00;;;;;;4978869;28;20709;-47
2022/05/14 03:38:31;;;;;;;104.03;21.92;;;12.50;1.00;;;;;;4977674;28;20198;-47
2022/05/14 03:40:57;;;;;;;56.13;14.10;;;12.50;1.00;;;;;;4973802;28;20693;-47
2022/05/14 03:43:23;;;;;;;129.50;25.43;;;12.40;1.00;;;;;;4971982;28;20328;-47
2022/05/14 03:45:48;;;;;;;58.87;14.20;;;12.40;1.00;;;;;;4977994;28;20316;-47
2022/05/14 03:48:13;;;;;;;88.07;19.85;;;12.40;1.00;;;;;;4973897;28;20650;-46
2022/05/14 03:50:39;;;;;;;90.33;20.60;;;12.50;1.00;;;;;;4973005;28;20186;-47
2022/05/14 03:53:04;;;;;;;39.88;12.55;;;12.40;1.00;;;;;;4977325;28;20242;-47
2022/05/14 03:55:30;;;;;;;72.65;17.17;;;12.40;1.00;;;;;;4976448;28;20241;-47
2022/05/14 03:57:56;;;;;;;67.75;16.15;;;12.50;1.00;;;;;;4973794;28;21519;-47
2022/05/14 04:00:21;;;;;;;125.00;24.73;;;12.50;1.00;;;;;;4968750;28;20229;-46
2022/05/14 04:02:47;;;;;;;77.13;17.67;;;12.70;1.00;;;;;;4974712;28;20818;-47
2022/05/14 04:05:14;;;;;;;79.82;18.27;;;12.70;2.00;;;;;;4975984;28;20901;-47
2022/05/14 04:07:40;;;;;;;56.80;14.57;;;12.50;1.00;;;;;;4975512;28;20221;-46
2022/05/14 04:10:07;;;;;;;48.13;12.75;;;12.80;1.00;;;;;;4979887;28;20210;-47
2022/05/14 04:12:32;;;;;;;87.25;19.70;;;12.20;4.00;;;;;;4977719;28;20275;-47
2022/05/14 04:14:58;;;;;;;66.60;16.43;;;12.70;7.20;;;;;;4976918;28;21201;-47
2022/05/14 04:17:23;;;;;;;87.90;20.15;;;12.50;1.00;;;;;;4976652;28;20567;-46
2022/05/14 04:19:50;;;;;;;53.33;14.63;;;12.60;1.00;;;;;;4978634;28;20218;-47
2022/05/14 04:22:15;;;;;;;46.93;12.03;;;12.70;3.00;;;;;;4978631;28;20224;-47
2022/05/14 04:24:41;;;;;;;68.83;16.37;;;12.60;1.00;;;;;;4975786;28;20217;-46
2022/05/14 04:27:06;;;;;;;103.57;21.57;;;12.60;1.00;;;;;;4974930;28;20229;-46
2022/05/14 04:29:32;;;;;;;92.43;19.85;;;;;;;;;;4976428;28;20213;-47
2022/05/14 04:31:58;;;;;;;132.00;26.25;;;12.70;1.00;;;;;;4975241;28;20690;-46
2022/05/14 04:34:23;;;;;;;94.57;20.97;;;13.00;1.00;;;;;;4972346;28;20217;-47
2022/05/14 04:36:48;;;;;;;90.32;19.98;;;12.70;1.00;;;;;;4972996;28;20229;-46
2022/05/14 04:39:14;;;;;;;63.13;15.30;;;12.70;1.00;;;;;;4974611;28;20725;-47
2022/05/14 04:41:40;;;;;;;75.60;17.02;;;13.00;1.00;;;;;;4970182;28;20280;-47
2022/05/14 04:44:05;;;;;;;75.88;16.65;;;12.80;1.00;;;;;;4978960;28;20270;-47
2022/05/14 04:46:35;;;;;;;76.97;17.77;;;12.80;1.00;;;;;;4978149;28;20300;-47
2022/05/14 04:49:01;;;;;;;75.23;17.67;;;12.80;1.00;;;;;;4972973;28;20691;-47
2022/05/14 04:51:26;;;;;;;94.35;20.80;;;12.90;1.00;;;;;;4976522;28;20305;-46
2022/05/14 04:53:51;;;;;;;79.30;18.27;;;12.60;1.50;;;;;;4972653;28;20738;-47
2022/05/14 04:56:17;;;;;;;54.17;13.73;;;12.90;4.20;;;;;;4970887;28;20189;-47
2022/05/14 04:58:43;;;;;;;59.40;14.82;;;12.80;1.00;;;;;;4972902;28;20205;-47
2022/05/14 05:01:08;;;;;;;103.70;21.15;;;12.70;1.00;;;;;;4974923;28;20271;-47
2022/05/14 05:03:34;;;;;;;131.00;24.83;;;13.30;1.00;;;;;;4968766;28;20321;-47
2022/05/14 05:06:00;;;;;;;41.85;11.30;;;13.30;1.00;;;;;;4979675;28;20229;-47
2022/05/14 05:08:29;;;;;;;58.60;14.40;;;13.00;1.00;;;;;;4980702;28;20383;-47
2022/05/14 05:10:55;;;;;;;66.82;15.32;;;13.10;1.00;;;;;;4971997;28;20198;-47
2022/05/14 05:13:23;;;;;;;55.72;13.20;;;13.50;1.00;;;;;;4976779;28;20221;-47
2022/05/14 05:15:49;;;;;;;49.90;13.27;;;13.30;1.00;;;;;;4975876;28;20210;-47
2022/05/14 05:18:16;;;;;;;70.03;16.42;;;13.10;1.00;;;;;;4972630;28;20240;-47
2022/05/14 05:20:43;;;;;;;105.67;22.47;;;13.40;1.00;;;;;;4973506;28;20273;-47
2022/05/14 05:23:14;;;;;;;101.35;21.15;;;13.30;1.00;;;;;;4972268;28;20643;-46
2022/05/14 05:25:41;;;;;;;73.83;17.60;;;13.40;1.00;;;;;;4969431;28;20284;-47
2022/05/14 05:28:06;;;;;;;106.25;22.48;;;13.50;1.00;;;;;;4966292;28;20583;-46
2022/05/14 05:30:32;;;;;;;193.45;39.80;;;13.40;1.00;;;;;;4965768;28;20217;-48
2022/05/14 05:32:57;;;;;;;136.70;27.08;;;14.10;1.00;;;;;;4966127;28;20220;-48
2022/05/14 05:35:24;;;;;;;91.95;19.75;;;13.70;1.00;;;;;;4968122;28;20190;-48
2022/05/14 05:37:50;;;;;;;113.00;23.40;;;;;;;;;;4973766;28;20225;-48
2022/05/14 05:40:16;;;;;;;119.22;24.08;;;13.80;1.00;;;;;;4969409;28;20206;-48
2022/05/14 05:42:43;;;;;;;49.25;13.60;;;13.80;1.00;;;;;;4974042;28;20277;-48
2022/05/14 05:45:10;;;;;;;115.28;23.73;;;14.10;1.00;;;;;;4960987;28;20217;-48
2022/05/14 05:47:36;;;;;;;55.53;15.35;;;13.90;1.00;;;;;;4969262;28;20214;-48
2022/05/14 05:50:02;;;;;;;104.03;22.88;;;14.00;1.00;;;;;;4974691;28;20189;-48
2022/05/14 05:52:27;;;;;;;105.68;22.65;;;14.20;1.00;;;;;;4974672;28;20217;-48
2022/05/14 05:57:39;;;;;;;235.55;42.22;;;14.20;1.00;;;;;;4944728;28;20324;-49
2022/05/14 06:00:09;;;;;;;196.75;36.65;;;14.20;1.00;;;;;;4933449;28;20210;-48
2022/05/14 06:02:34;;;;;;;119.30;25.10;;;14.20;1.00;;;;;;4964983;28;20173;-48
2022/05/14 06:05:00;;;;;;;183.65;36.10;;;14.40;1.00;;;;;;4964801;28;20188;-48
2022/05/14 06:07:26;;;;;;;112.95;23.88;;;14.40;1.00;;;;;;4964229;28;20938;-48
2022/05/14 06:09:51;;;;;;;111.10;23.17;;;14.60;99.90;;;;;;4962899;28;20217;-48
2022/05/14 06:12:18;;;;;;;287.20;63.47;;;;;;;;;;4970938;28;20217;-48
2022/05/14 06:14:44;;;;;;;85.35;19.88;;;14.60;99.90;;;;;;4969212;28;20281;-48
2022/05/14 06:17:10;;;;;;;206.27;39.00;;;;;;;;;;4972127;28;20692;-48
2022/05/14 06:19:36;;;;;;;98.60;20.48;;;14.90;1.00;;;;;;4964397;28;20632;-48
2022/05/14 06:22:03;;;;;;;246.40;47.97;;;15.20;1.00;;;;;;4971031;28;20674;-49
2022/05/14 06:24:29;;;;;;;153.02;31.10;;;15.30;1.00;;;;;;4964227;28;20213;-48
2022/05/14 06:26:55;;;;;;;171.90;33.83;;;15.60;1.00;;;;;;4961069;28;20226;-49
2022/05/14 06:29:21;;;;;;;107.97;24.40;;;;;;;;;;4966965;28;20642;-49
2022/05/14 06:31:47;;;;;;;132.60;28.05;;;15.30;1.00;;;;;;4970954;28;20225;-48
2022/05/14 06:34:13;;;;;;;90.68;20.50;;;15.50;1.00;;;;;;4960665;28;20225;-49
2022/05/14 06:36:39;;;;;;;181.35;37.13;;;15.50;61.30;;;;;;4978104;28;20698;-49
2022/05/14 06:39:04;;;;;;;116.50;25.55;;;15.70;99.90;;;;;;4970772;28;20232;-49
2022/05/14 06:41:30;;;;;;;77.43;19.25;;;;;;;;;;4979342;28;20311;-48
2022/05/14 06:43:56;;;;;;;174.68;39.10;;;15.70;99.90;;;;;;4980324;28;20177;-48
2022/05/14 06:46:22;;;;;;;117.97;25.90;;;15.90;52.20;;;;;;4973064;28;20228;-49
2022/05/14 06:48:47;;;;;;;99.10;22.23;;;15.90;1.00;;;;;;4980513;28;20574;-47
2022/05/14 06:51:23;;;;;;;69.70;17.35;;;16.70;1.00;;;;;;4981955;28;20237;-47
2022/05/14 06:53:50;;;;;;;27.27;9.95;;;16.00;1.00;;;;;;4984439;28;20655;-47
2022/05/14 06:56:19;;;;;;;134.80;30.63;;;15.90;99.90;;;;;;4970243;28;20674;-48
2022/05/14 06:58:48;;;;;;;77.70;18.77;;;16.00;1.00;;;;;;4964599;28;20355;-48
2022/05/14 07:01:15;;;;;;;109.25;24.98;;;15.90;99.90;;;;;;4963273;28;20217;-48
2022/05/14 07:06:40;;;;;;;154.77;32.72;;;16.20;1.00;;;;;;4971268;28;20228;-48
2022/05/14 07:09:26;;;;;;;81.22;20.00;;;16.20;99.90;;;;;;4965671;28;20282;-48
2022/05/14 07:11:54;;;;;;;84.93;20.08;;;16.30;99.90;;;;;;4970273;28;20213;-48
2022/05/14 07:14:20;;;;;;;152.02;33.80;;;16.50;99.90;;;;;;4965926;28;20190;-49
2022/05/14 07:16:48;;;;;;;151.05;33.35;;;16.50;99.90;;;;;;4965984;28;20248;-50
2022/05/14 07:19:14;;;;;;;169.05;35.80;;;16.50;99.90;;;;;;4963483;28;20224;-50
2022/05/14 07:21:41;;;;;;;71.70;18.30;;;16.50;99.90;;;;;;4956625;28;20307;-47
2022/05/14 07:24:09;;;;;;;45.85;13.48;;;16.60;99.90;;;;;;4976435;28;20231;-47
2022/05/14 07:26:36;;;;;;;79.57;20.60;;;16.40;99.90;;;;;;4973383;28;20218;-47
2022/05/14 07:29:06;;;;;;;74.15;19.67;;;16.40;99.90;;;;;;4979021;28;20339;-47
2022/05/14 07:31:32;;;;;;;154.07;33.17;;;16.50;99.90;;;;;;4964849;28;20304;-46
2022/05/14 07:33:58;;;;;;;65.57;17.40;;;16.60;67.30;;;;;;4975270;28;20308;-47
2022/05/14 07:36:25;;;;;;;104.78;24.48;;;16.60;99.90;;;;;;4967569;28;20213;-47
2022/05/14 07:38:54;;;;;;;57.50;16.40;;;16.60;99.90;;;;;;4971623;28;20343;-50
2022/05/14 07:41:19;;;;;;;91.22;22.38;;;16.60;99.90;;;;;;4978052;28;20377;-49
2022/05/14 07:43:48;;;;;;;91.35;22.08;;;16.80;99.90;;;;;;4973937;28;20713;-50
2022/05/14 07:46:18;;;;;;;111.80;25.17;;;17.00;1.00;;;;;;4971346;28;20574;-50
2022/05/14 07:48:44;;;;;;;103.32;25.38;;;17.00;66.80;;;;;;4973165;28;20331;-50
2022/05/14 07:51:11;;;;;;;99.90;24.73;;;17.10;72.50;;;;;;4964394;28;20225;-49
2022/05/14 07:53:37;;;;;;;148.45;34.45;;;17.30;1.00;;;;;;4965577;28;20594;-49
2022/05/14 07:56:04;;;;;;;87.93;19.92;;;17.20;99.90;;;;;;4970781;28;20193;-50
2022/05/14 07:58:30;;;;;;;141.82;31.95;;;17.00;1.00;;;;;;4973179;28;20284;-50
2022/05/14 08:00:57;;;;;;;138.45;29.35;;;16.90;1.00;;;;;;4966315;28;20205;-50
2022/05/14 08:03:24;;;;;;;150.43;30.33;;;17.10;1.00;;;;;;4966123;28;20288;-50
2022/05/14 08:05:51;;;;;;;117.75;26.15;;;17.30;1.00;;;;;;4971312;28;20248;-50
2022/05/14 08:08:16;;;;;;;66.88;17.52;;;17.30;1.00;;;;;;4969663;28;20256;-50
2022/05/14 08:10:43;;;;;;;99.28;23.50;;;17.20;1.00;;;;;;4973738;28;20334;-50
2022/05/14 08:13:14;;;;;;;82.10;20.85;;;17.30;1.00;;;;;;4967681;28;20224;-50
2022/05/14 08:15:40;;;;;;;135.27;30.40;;;17.50;1.00;;;;;;4969042;28;20224;-50
2022/05/14 08:18:06;;;;;;;111.18;24.45;;;17.50;1.00;;;;;;4960815;28;20687;-49
2022/05/14 08:20:31;;;;;;;123.90;28.30;;;17.90;1.00;;;;;;4966760;28;20231;-50
2022/05/14 08:25:42;;;;;;;121.88;25.95;;;;;;;;;;4959769;28;20248;-50
2022/05/14 08:28:07;;;;;;;119.25;25.77;;;17.70;1.00;;;;;;4964450;28;20252;-50
2022/05/14 08:30:34;;;;;;;169.50;36.08;;;17.70;1.00;;;;;;4958169;28;22335;-50
2022/05/14 08:33:00;;;;;;;160.18;35.03;;;;;;;;;;4967072;28;20292;-49
2022/05/14 08:35:27;;;;;;;83.68;20.50;;;18.10;1.00;;;;;;4950994;28;20590;-50
2022/05/14 08:37:54;;;;;;;163.00;36.95;;;18.00;1.00;;;;;;4955993;28;20332;-50
2022/05/14 08:40:29;;;;;;;85.18;21.02;;;18.00;1.00;;;;;;4964864;28;20213;-50
2022/05/14 08:43:01;;;;;;;74.15;19.67;;;18.00;1.00;;;;;;4982176;28;20220;-50
2022/05/14 08:45:28;;;;;;;115.40;25.98;;;18.00;1.00;;;;;;4966329;28;20214;-50
2022/05/14 08:48:03;;;;;;;83.70;20.83;;;18.00;1.00;;;;;;4978618;28;20226;-49
2022/05/14 08:50:34;;;;;;;75.90;19.77;;;18.00;1.00;;;;;;4977076;28;20193;-50
2022/05/14 08:53:01;;;;;;;73.70;19.98;;;18.00;1.00;;;;;;4981020;28;20185;-50
2022/05/14 08:55:35;;;;;;;98.50;24.55;;;18.10;1.00;;;;;;4980636;28;20321;-50
2022/05/14 08:58:03;;;;;;;112.00;27.42;;;18.20;1.00;;;;;;4979349;28;20233;-50
2022/05/14 09:00:29;;;;;;;99.57;24.75;;;18.20;1.00;;;;;;4973320;28;20213;-50
2022/05/14 09:02:55;;;;;;;104.32;25.95;;;18.40;1.00;;;;;;4976657;28;20224;-50
2022/05/14 09:05:28;;;;;;;79.85;21.13;;;18.30;1.00;;;;;;4979538;28;20184;-50
2022/05/14 09:07:54;;;;;;;104.05;25.80;;;18.30;1.00;;;;;;4978321;28;20251;-50
2022/05/14 09:10:22;;;;;;;89.03;22.30;;;18.10;1.00;;;;;;4980891;28;20968;-50
2022/05/14 09:12:57;;;;;;;106.88;25.83;;;18.30;1.00;;;;;;4979770;28;20217;-50
2022/05/14 09:15:26;;;;;;;91.72;22.88;;;18.30;1.00;;;;;;4972705;28;20239;-50
2022/05/14 09:18:07;;;;;;;133.45;30.08;;;18.10;1.00;;;;;;4960277;28;20221;-50
2022/05/14 09:20:42;;;;;;;133.52;29.40;;;18.10;1.00;;;;;;4968774;28;20201;-50
2022/05/14 09:23:07;;;;;;;92.85;22.30;;;18.00;1.00;;;;;;4972531;28;20257;-50
2022/05/14 09:25:40;;;;;;;138.50;30.65;;;18.30;1.00;;;;;;4967628;28;20934;-50
2022/05/14 09:28:10;;;;;;;81.45;20.05;;;17.90;1.00;;;;;;4975069;28;20296;-50
2022/05/14 09:30:51;;;;;;;122.32;26.55;;;17.80;1.00;;;;;;4960538;28;20241;-50
2022/05/14 09:33:27;;;;;;;81.03;20.80;;;17.90;1.00;;;;;;4965168;28;20251;-50
2022/05/14 09:35:55;;;;;;;117.88;27.80;;;17.90;1.00;;;;;;4974237;28;20793;-50
2022/05/14 09:38:23;;;;;;;75.03;19.27;;;17.70;1.00;;;;;;4974238;28;20384;-50
2022/05/14 09:40:50;;;;;;;63.50;16.63;;;17.80;1.00;;;;;;4970198;28;20206;-50
2022/05/14 09:43:15;;;;;;;156.80;33.97;;;17.70;96.30;;;;;;4968841;28;20322;-50
2022/05/14 09:45:44;;;;;;;86.70;21.38;;;17.70;99.90;;;;;;4966333;28;20224;-50
2022/05/14 09:48:13;;;;;;;82.55;20.88;;;17.70;99.90;;;;;;4970116;28;20221;-50
2022/05/14 09:50:40;;;;;;;108.22;25.92;;;18.30;24.40;;;;;;4978299;28;20189;-50
2022/05/14 09:53:06;;;;;;;118.57;27.35;;;18.10;1.00;;;;;;4972026;28;20182;-51
2022/05/14 09:56:06;;;;;;;89.95;22.10;;;18.40;1.00;;;;;;4976638;28;20272;-50
2022/05/14 09:58:42;;;;;;;98.70;23.13;;;18.30;1.00;;;;;;4976068;28;20653;-51
2022/05/14 10:01:22;;;;;;;77.40;18.92;;;18.40;1.00;;;;;;4974032;28;20218;-50
2022/05/14 10:03:58;;;;;;;129.07;27.50;;;18.60;1.00;;;;;;4976058;28;20220;-51
2022/05/14 10:06:43;;;;;;;152.27;33.67;;;18.20;1.00;;;;;;4976874;28;20251;-50
2022/05/14 10:09:32;;;;;;;96.10;22.75;;;18.30;1.00;;;;;;4975556;28;20251;-50
2022/05/14 10:12:15;;;;;;;114.15;26.10;;;18.40;1.00;;;;;;4967976;28;20226;-50
2022/05/14 10:15:05;;;;;;;82.88;21.25;;;18.60;1.00;;;;;;4972357;28;20619;-50
2022/05/14 10:18:09;;;;;;;302.65;65.47;;;19.10;99.90;;;;;;4964805;28;20832;-51
2022/05/14 10:20:43;;;;;;;89.20;22.73;;;19.60;99.90;;;;;;4980160;28;20177;-51
2022/05/14 10:29:16;;;;;;;50.60;15.30;;;19.30;99.90;;;;;;4982520;28;20272;-51
2022/05/14 10:31:44;;;;;;;109.97;26.77;;;19.00;99.90;;;;;;4984224;28;20239;-50
2022/05/14 10:34:15;;;;;;;72.63;19.13;;;19.00;99.90;;;;;;4981275;28;20217;-50
2022/05/14 10:36:45;;;;;;;81.90;21.23;;;18.90;99.90;;;;;;4982938;28;20221;-51
2022/05/14 10:39:19;;;;;;;78.88;21.20;;;19.00;99.90;;;;;;4980286;28;20709;-51
2022/05/14 10:41:48;;;;;;;89.80;23.42;;;19.20;99.90;;;;;;4980680;28;20178;-50
2022/05/14 10:44:38;;;;;;;58.13;15.70;;;19.40;99.90;;;;;;4982935;28;20240;-51
2022/05/14 10:47:07;;;;;;;95.05;24.35;;;19.40;99.90;;;;;;4977852;28;20229;-51
2022/05/14 10:49:53;;;;;;;65.05;18.02;;;19.40;99.90;;;;;;4983042;28;20382;-50
2022/05/14 10:52:19;;;;;;;75.85;19.70;;;19.60;99.90;;;;;;4983267;28;20217;-50
2022/05/14 10:54:45;;;;;;;152.68;37.17;;;19.30;99.90;;;;;;4980817;28;20662;-51
2022/05/14 10:57:14;;;;;;;99.25;24.90;;;19.50;99.90;;;;;;4984934;28;20320;-50
2022/05/14 10:59:44;;;;;;;97.47;24.50;;;19.50;99.90;;;;;;4982347;28;20425;-50
2022/05/14 11:02:34;;;;;;;104.10;25.27;;;19.40;99.90;;;;;;4978504;28;20646;-51
2022/05/14 11:05:01;;;;;;;64.32;18.23;;;19.40;99.90;;;;;;4976034;28;20205;-51
2022/05/14 11:07:30;;;;;;;74.88;20.05;;;19.60;99.90;;;;;;4983051;28;20377;-51
2022/05/14 11:10:18;;;;;;;69.53;19.70;;;19.50;99.90;;;;;;4982819;28;20328;-51
2022/05/14 11:12:44;;;;;;;66.00;17.88;;;19.10;99.90;;;;;;4981616;28;20280;-51
2022/05/14 11:15:28;;;;;;;80.00;21.15;;;19.30;99.90;;;;;;4982372;28;20217;-50
2022/05/14 11:18:09;;;;;;;87.82;22.20;;;19.40;99.90;;;;;;4981101;28;20225;-50
2022/05/14 11:20:37;;;;;;;84.95;21.77;;;19.70;99.90;;;;;;4984322;28;20190;-51
2022/05/14 11:23:06;;;;;;;77.40;21.33;;;19.70;99.90;;;;;;4983249;28;20556;-51
2022/05/14 11:25:32;;;;;;;95.53;25.02;;;19.90;99.90;;;;;;4984507;28;20566;-51
2022/05/14 11:28:19;;;;;;;110.43;27.92;;;20.70;99.90;;;;;;4980336;28;20218;-50
2022/05/14 11:30:56;;;;;;;63.08;18.30;;;20.00;99.90;;;;;;4978951;28;20224;-51
2022/05/14 11:33:27;;;;;;;73.13;20.23;;;19.90;99.90;;;;;;4976484;28;20545;-51
2022/05/14 11:35:57;;;;;;;75.93;21.15;;;19.90;99.90;;;;;;4982114;28;20217;-51
2022/05/14 11:38:26;;;;;;;104.25;26.23;;;19.80;99.90;;;;;;4983230;28;20530;-51
2022/05/14 11:41:03;;;;;;;97.28;24.77;;;20.00;99.90;;;;;;4979182;28;20250;-51
2022/05/14 11:43:30;;;;;;;96.35;25.23;;;20.00;99.90;;;;;;4979663;28;20220;-51
2022/05/14 11:46:17;;;;;;;98.28;25.10;;;20.10;99.90;;;;;;4982694;28;20217;-51
2022/05/14 11:49:04;;;;;;;85.70;21.50;;;19.90;99.90;;;;;;4981453;28;20260;-50
2022/05/14 11:51:38;;;;;;;90.28;22.92;;;;;;;;;;4983631;28;20661;-50
2022/05/14 11:54:23;;;;;;;65.03;18.33;;;;;;;;;;4983003;28;20270;-50
2022/05/14 11:56:55;;;;;;;58.20;16.98;;;19.90;99.90;;;;;;4983597;28;20234;-51
2022/05/14 11:59:47;;;;;;;111.15;27.35;;;20.00;99.90;;;;;;4981575;28;20201;-50
2022/05/14 12:02:39;;;;;;;180.02;42.97;;;20.00;99.90;;;;;;4977799;28;20534;-50
2022/05/14 12:05:11;;;;;;;97.03;24.42;;;20.00;99.90;;;;;;4977407;28;20312;-51
2022/05/14 12:08:13;;;;;;;51.90;15.63;;;20.10;92.50;;;;;;4984147;28;20676;-50
2022/05/14 12:10:49;;;;;;;99.93;25.05;;;20.20;95.70;;;;;;4978005;28;20989;-51
2022/05/14 12:13:48;;;;;;;74.63;20.15;;;20.20;94.80;;;;;;4980677;28;20224;-51
2022/05/14 12:16:15;;;;;;;69.32;19.15;;;20.30;99.90;;;;;;4979164;28;20228;-51
2022/05/14 12:18:41;;;;;;;66.47;18.88;;;;;;;;;;4981449;28;20266;-51
2022/05/14 12:21:08;;;;;;;80.43;21.48;;;;;;;;;;4983673;28;20248;-51
2022/05/14 12:23:34;;;;;;;100.65;24.98;;;;;;;;;;4980701;28;20217;-50
2022/05/14 12:26:00;;;;;;;96.78;24.13;;;;;;;;;;4981793;28;20520;-50
2022/05/14 12:28:28;;;;;;;91.25;23.80;;;;;;;;;;4980827;28;20198;-51
2022/05/14 12:33:40;;;;;;;99.68;25.25;;;;;;;;;;4979858;28;20247;-51
2022/05/14 12:36:06;;;;;;;146.98;34.05;;;;;;;;;;4966825;28;21090;-50
2022/05/14 12:38:35;;;;;;;115.22;28.48;;;;;;;;;;4968022;28;20225;-51
2022/05/14 12:41:01;;;;;;;123.55;29.50;;;;;;;;;;4960656;28;20627;-50
2022/05/14 12:43:27;;;;;;;120.10;28.88;;;;;;;;;;4971056;28;20560;-51
2022/05/14 12:46:01;;;;;;;191.48;42.60;;;;;;;;;;4947850;28;20777;-50
2022/05/14 12:48:27;;;;;;;233.70;52.38;;;;;;;;;;4962278;28;22192;-50
2022/05/14 12:50:55;;;;;;;100.45;26.08;;;;;;;;;;4967771;28;20232;-50
2022/05/14 12:53:32;;;;;;;125.10;30.70;;;;;;;;;;4957422;28;20401;-50
2022/05/14 12:55:59;;;;;;;151.05;34.67;;;;;;;;;;4956134;28;20311;-51
2022/05/14 12:58:26;;;;;;;124.18;29.88;;;;;;;;;;4959154;28;20283;-51
2022/05/14 13:00:53;;;;;;;175.85;41.72;;;;;;;;;;4963303;28;20372;-50
2022/05/14 13:03:34;;;;;;;87.88;24.15;;;;;;;;;;4954737;28;20276;-51
2022/05/14 13:06:18;;;;;;;87.72;23.38;;;;;;;;;;4966210;28;20308;-50
2022/05/14 13:08:46;;;;;;;123.82;31.10;;;;;;;;;;4972692;28;20883;-50
2022/05/14 13:11:15;;;;;;;92.82;24.67;;;;;;;;;;4968279;28;20198;-51
2022/05/14 13:13:42;;;;;;;70.28;19.77;;;;;;;;;;4960959;28;20222;-51